Time;durP1;ratioP1;P1;durP2;ratioP2;P2;SDS_P1;SDS_P2;PMS_P1;PMS_P2;Temp;Humidity;BMP_temperature;BMP_pressure;BME280_temperature;BME280_humidity;BME280_pressure;Samples;Min_cycle;Max_cycle;Signal;HPM_P1;HPM_P2
2022/02/04 00:21:22;;;;;;;20.45;7.75;;;7.90;99.90;;;;;;5033596;28;20072;-79
2022/02/04 00:23:28;;;;;;;21.52;7.70;;;8.00;99.90;;;;;;5032759;28;20036;-78
2022/02/04 00:28:46;;;;;;;15.30;6.55;;;7.90;99.90;;;;;;5034129;28;20032;-78
2022/02/04 00:33:39;;;;;;;18.48;7.93;;;7.90;99.90;;;;;;5034502;28;20459;-78
2022/02/04 00:36:13;;;;;;;11.77;5.03;;;8.00;99.90;;;;;;5016370;28;20029;-80
2022/02/04 00:38:42;;;;;;;17.08;6.80;;;7.90;99.90;;;;;;5016028;28;20030;-78
2022/02/04 00:41:11;;;;;;;17.75;7.65;;;8.00;99.90;;;;;;5033827;28;20026;-77
2022/02/04 00:43:38;;;;;;;19.55;7.03;;;8.00;99.90;;;;;;5045674;28;20021;-77
2022/02/04 00:48:41;;;;;;;17.83;7.68;;;7.90;99.90;;;;;;5053279;28;20035;-77
2022/02/04 00:53:57;;;;;;;17.70;7.47;;;8.00;99.90;;;;;;5040459;28;20044;-77
2022/02/04 00:56:40;;;;;;;16.75;7.07;;;8.00;99.90;;;;;;5033195;28;20017;-78
2022/02/04 01:26:18;;;;;;;16.63;7.05;;;7.80;99.90;;;;;;5037056;28;20029;-78
2022/02/04 01:28:46;;;;;;;14.95;5.68;;;7.80;99.90;;;;;;5018334;28;20029;-78
2022/02/04 01:31:16;;;;;;;17.60;7.55;;;7.80;99.90;;;;;;5053869;28;20037;-79
2022/02/04 01:33:44;;;;;;;12.50;6.53;;;7.80;99.90;;;;;;5036996;28;20040;-78
2022/02/04 01:36:09;;;;;;;13.93;5.78;;;7.90;99.90;;;;;;5039095;28;20021;-79
2022/02/04 01:38:35;;;;;;;13.45;6.35;;;7.90;99.90;;;;;;5041454;28;20539;-79
2022/02/04 01:41:00;;;;;;;13.50;5.07;;;7.90;99.90;;;;;;5042908;28;20028;-80
2022/02/04 01:43:27;;;;;;;12.45;5.65;;;7.90;99.90;;;;;;5041177;28;20025;-79
2022/02/04 01:46:02;;;;;;;12.50;5.60;;;7.90;99.90;;;;;;5040859;28;20025;-79
2022/02/04 01:48:28;;;;;;;14.18;5.85;;;7.90;99.90;;;;;;5037241;28;20028;-77
2022/02/04 01:50:54;;;;;;;14.13;5.63;;;7.90;99.90;;;;;;5038420;28;20025;-78
2022/02/04 01:53:28;;;;;;;13.60;5.35;;;7.90;99.90;;;;;;5016666;28;20026;-78
2022/02/04 01:55:56;;;;;;;11.88;5.25;;;7.90;99.90;;;;;;5034859;28;20037;-78
2022/02/04 01:58:22;;;;;;;15.70;5.97;;;7.90;99.90;;;;;;5034577;28;20387;-78
2022/02/04 02:00:47;;;;;;;14.18;5.68;;;7.90;99.90;;;;;;5048308;28;20032;-77
2022/02/04 02:03:13;;;;;;;14.85;5.55;;;7.80;99.90;;;;;;5036173;28;20021;-77
2022/02/04 02:05:39;;;;;;;11.38;5.38;;;7.80;99.90;;;;;;5036368;28;20025;-78
2022/02/04 02:08:10;;;;;;;11.95;5.47;;;7.80;99.90;;;;;;5036552;28;20021;-77
2022/02/04 02:10:36;;;;;;;11.85;5.07;;;7.90;99.90;;;;;;5036264;28;20045;-78
2022/02/04 02:58:48;;;;;;;8.25;2.50;;;7.90;99.90;;;;;;5034847;28;20410;-79
2022/02/04 03:01:14;;;;;;;10.00;3.30;;;7.80;99.90;;;;;;5020191;28;20030;-79
2022/02/04 03:03:39;;;;;;;9.48;4.22;;;7.90;99.90;;;;;;5018798;28;20036;-79
2022/02/04 03:06:06;;;;;;;9.77;3.78;;;8.00;99.90;;;;;;5037477;28;20024;-80
2022/02/04 03:08:32;;;;;;;8.77;3.53;;;7.90;99.90;;;;;;5020426;28;20450;-80
2022/02/04 03:10:58;;;;;;;8.57;3.55;;;7.90;99.90;;;;;;5020229;28;20071;-79
2022/02/04 03:13:25;;;;;;;9.30;3.58;;;7.90;99.90;;;;;;5037537;28;20037;-79
2022/02/04 03:15:59;;;;;;;8.18;2.50;;;7.90;99.90;;;;;;5040395;28;20025;-80
2022/02/04 03:18:27;;;;;;;8.93;3.92;;;7.90;99.90;;;;;;5055091;28;20032;-79
2022/02/04 03:20:57;;;;;;;10.15;3.75;;;7.90;99.90;;;;;;5040537;28;20021;-80
2022/02/04 03:23:24;;;;;;;6.68;3.47;;;7.90;99.90;;;;;;5057684;28;20024;-79
2022/02/04 03:25:56;;;;;;;11.48;3.28;;;7.90;99.90;;;;;;5039767;28;20017;-79
2022/02/04 03:28:26;;;;;;;6.38;2.15;;;7.90;99.90;;;;;;5038393;28;20021;-79
2022/02/04 03:30:54;;;;;;;7.68;3.03;;;7.90;99.90;;;;;;5030859;28;20030;-80
2022/02/04 03:33:23;;;;;;;8.70;2.40;;;7.90;99.90;;;;;;5036380;28;20537;-79
2022/02/04 03:35:48;;;;;;;8.57;2.97;;;7.90;99.90;;;;;;5018747;28;20036;-79
2022/02/04 03:38:14;;;;;;;10.60;2.92;;;7.80;99.90;;;;;;5018238;28;20466;-79
2022/02/04 03:40:39;;;;;;;6.40;2.13;;;7.90;99.90;;;;;;5023482;28;20082;-79
2022/02/04 03:43:05;;;;;;;9.20;2.75;;;7.90;99.90;;;;;;5055830;28;20029;-80
2022/02/04 03:45:31;;;;;;;5.65;2.33;;;7.90;99.90;;;;;;5056340;28;20029;-79
2022/02/04 03:47:56;;;;;;;7.60;2.53;;;7.90;99.90;;;;;;5056391;28;20032;-79
2022/02/04 03:50:22;;;;;;;6.80;3.17;;;7.80;99.90;;;;;;5052877;28;20109;-80
2022/02/04 03:52:47;;;;;;;6.53;2.95;;;7.80;99.90;;;;;;5017258;28;20021;-79
2022/02/04 03:55:13;;;;;;;10.23;3.85;;;7.80;99.90;;;;;;5033542;28;20025;-79
2022/02/04 03:57:39;;;;;;;10.70;3.03;;;7.80;99.90;;;;;;5016079;28;20026;-79
2022/02/04 04:00:07;;;;;;;9.52;2.95;;;7.80;99.90;;;;;;5033847;28;20037;-78
2022/02/04 04:02:33;;;;;;;9.23;2.92;;;7.90;99.90;;;;;;5053146;28;20025;-78
2022/02/04 04:04:59;;;;;;;8.40;3.30;;;9.00;99.90;;;;;;5060630;28;20390;-78
2022/02/04 04:07:24;;;;;;;8.35;2.42;;;7.80;99.90;;;;;;5049485;28;20029;-78
2022/02/04 04:09:56;;;;;;;9.90;2.88;;;7.80;99.90;;;;;;5053846;28;20091;-79
2022/02/04 04:12:23;;;;;;;7.45;2.33;;;7.80;99.90;;;;;;5035400;28;20066;-78
2022/02/04 04:14:53;;;;;;;6.30;2.15;;;7.80;99.90;;;;;;5023389;28;20025;-78
2022/02/04 04:17:18;;;;;;;12.43;3.22;;;7.80;99.90;;;;;;5033486;28;20029;-78
2022/02/04 04:19:44;;;;;;;8.15;2.75;;;7.80;99.90;;;;;;5018581;28;20033;-79
2022/02/04 04:22:09;;;;;;;10.52;2.45;;;7.80;99.90;;;;;;5036772;28;20034;-79
2022/02/04 04:24:35;;;;;;;4.22;1.83;;;7.90;99.90;;;;;;5015784;28;20025;-79
2022/02/04 04:27:00;;;;;;;5.32;2.42;;;7.90;99.90;;;;;;5033472;28;20072;-79
2022/02/04 04:29:26;;;;;;;3.40;1.63;;;7.90;99.90;;;;;;5033121;28;20049;-79
2022/02/04 04:31:51;;;;;;;5.25;2.15;;;7.80;99.90;;;;;;5015538;28;20033;-79
2022/02/04 04:34:17;;;;;;;3.85;1.30;;;7.80;99.90;;;;;;5015807;28;20036;-78
2022/02/04 04:36:43;;;;;;;7.35;1.73;;;7.80;99.90;;;;;;5033202;28;20022;-78
2022/02/04 04:39:20;;;;;;;6.35;1.60;;;7.80;99.90;;;;;;5015298;28;20059;-79
2022/02/04 05:28:56;;;;;;;3.70;0.65;;;7.90;99.90;;;;;;5036411;28;20036;-78
2022/02/04 05:31:21;;;;;;;1.92;0.52;;;7.90;99.90;;;;;;5018659;28;20540;-78
2022/02/04 05:33:48;;;;;;;3.17;0.50;;;7.90;99.90;;;;;;5018638;28;20021;-78
2022/02/04 05:36:14;;;;;;;3.35;0.68;;;7.90;99.90;;;;;;5036092;28;20037;-78
2022/02/04 05:38:41;;;;;;;2.53;0.50;;;7.90;99.90;;;;;;5021288;28;20429;-79
2022/02/04 05:41:09;;;;;;;2.65;0.43;;;7.90;99.90;;;;;;5038684;28;20076;-80
2022/02/04 05:43:38;;;;;;;5.13;0.40;;;7.90;99.90;;;;;;5037253;28;20478;-79
2022/02/04 05:46:11;;;;;;;2.78;0.30;;;7.80;99.90;;;;;;5037365;28;20017;-79
2022/02/04 05:48:39;;;;;;;1.48;0.30;;;7.80;99.90;;;;;;5055816;28;20036;-79
2022/02/04 05:51:29;;;;;;;4.22;0.65;;;11.20;99.90;;;;;;5055619;28;20025;-79
2022/02/04 05:54:21;;;;;;;6.03;0.50;;;7.80;99.90;;;;;;5037720;28;20028;-78
2022/02/04 05:57:25;;;;;;;2.53;0.38;;;7.90;99.90;;;;;;5037521;28;20104;-77
2022/02/04 06:10:18;;;;;;;4.47;1.02;;;7.80;99.90;;;;;;5054268;28;20045;-77
2022/02/04 06:13:20;;;;;;;5.07;1.08;;;7.90;99.90;;;;;;5037224;28;20040;-77
2022/02/04 06:23:44;;;;;;;4.75;0.55;;;7.80;99.90;;;;;;5035522;28;20387;-77
2022/02/04 06:26:09;;;;;;;2.22;0.55;;;7.90;99.90;;;;;;5017159;28;20017;-77
2022/02/04 06:28:35;;;;;;;1.80;0.43;;;8.00;99.90;;;;;;5040799;28;20029;-77
2022/02/04 06:31:01;;;;;;;3.65;0.47;;;7.90;99.90;;;;;;5036977;28;20025;-76
2022/02/04 06:33:27;;;;;;;3.65;0.50;;;7.90;99.90;;;;;;5054564;28;20040;-76
2022/02/04 06:35:53;;;;;;;4.78;1.00;;;8.00;99.90;;;;;;5036719;28;20024;-76
2022/02/04 06:38:18;;;;;;;3.33;0.82;;;8.00;99.90;;;;;;5051022;28;20030;-77
2022/02/04 06:40:44;;;;;;;3.80;0.63;;;7.90;99.90;;;;;;5034963;28;20120;-78
2022/02/04 06:43:10;;;;;;;5.50;0.60;;;8.00;99.90;;;;;;5034480;28;20025;-78
2022/02/04 06:45:36;;;;;;;3.95;0.60;;;7.90;99.90;;;;;;5034548;28;20026;-78
2022/02/04 06:48:01;;;;;;;2.50;0.52;;;7.90;99.90;;;;;;5018011;28;20116;-77
2022/02/04 06:50:27;;;;;;;2.28;0.77;;;8.00;99.90;;;;;;5054396;28;20104;-78
2022/02/04 06:52:53;;;;;;;2.65;0.90;;;8.00;99.90;;;;;;5036648;28;20029;-77
2022/02/04 06:55:20;;;;;;;3.78;0.77;;;8.00;99.90;;;;;;5057437;28;20082;-79
2022/02/04 06:57:48;;;;;;;3.42;0.93;;;8.00;99.90;;;;;;5055263;28;20508;-78
2022/02/04 07:00:17;;;;;;;8.48;1.00;;;8.00;99.90;;;;;;5035905;28;20033;-79
2022/02/04 07:02:43;;;;;;;3.55;0.70;;;8.00;99.90;;;;;;5035156;28;20069;-78
2022/02/04 07:05:12;;;;;;;3.22;1.10;;;8.00;99.90;;;;;;5016628;28;20022;-79
2022/02/04 07:07:41;;;;;;;3.40;0.93;;;8.10;99.90;;;;;;5034825;28;20022;-78
2022/02/04 07:13:13;;;;;;;4.60;1.02;;;8.10;99.90;;;;;;5010615;28;20032;-78
2022/02/04 07:20:52;;;;;;;3.78;1.48;;;8.10;99.90;;;;;;5054763;28;20099;-78
2022/02/04 07:23:18;;;;;;;5.10;1.85;;;8.10;99.90;;;;;;5054741;28;20029;-79
2022/02/04 07:25:44;;;;;;;4.65;1.27;;;8.10;99.90;;;;;;5055974;28;20025;-78
2022/02/04 07:28:09;;;;;;;4.60;1.70;;;8.10;99.90;;;;;;5055085;28;20552;-78
2022/02/04 07:30:37;;;;;;;5.20;1.85;;;8.10;99.90;;;;;;5055523;28;20401;-79
2022/02/04 07:33:21;;;;;;;3.90;1.90;;;8.10;99.90;;;;;;5055084;28;20029;-78
2022/02/04 07:38:49;;;;;;;4.82;1.35;;;8.10;99.90;;;;;;5056913;28;20138;-80
2022/02/04 07:41:19;;;;;;;5.20;1.40;;;8.10;99.90;;;;;;5029984;28;20030;-79
2022/02/04 07:43:45;;;;;;;5.47;2.10;;;8.10;99.90;;;;;;5019532;28;20076;-80
2022/02/04 07:46:16;;;;;;;6.35;2.30;;;8.10;99.90;;;;;;5037201;28;20018;-79
2022/02/04 07:48:42;;;;;;;3.45;1.52;;;8.10;99.90;;;;;;5038377;28;20032;-80
2022/02/04 07:51:07;;;;;;;9.82;3.00;;;8.10;99.90;;;;;;5025649;28;20013;-80
2022/02/04 07:53:34;;;;;;;6.38;3.08;;;8.10;99.90;;;;;;5018765;28;20078;-79
2022/02/04 07:56:01;;;;;;;6.50;3.10;;;8.10;99.90;;;;;;5035887;28;20034;-79
2022/02/04 07:58:28;;;;;;;6.57;3.65;;;8.10;99.90;;;;;;5018347;28;20026;-79
2022/02/04 08:00:54;;;;;;;8.15;3.22;;;8.20;99.90;;;;;;5019243;28;20114;-80
2022/02/04 08:03:32;;;;;;;8.25;3.10;;;8.20;99.90;;;;;;5037145;28;20026;-80
2022/02/04 08:06:05;;;;;;;6.43;3.30;;;8.20;99.90;;;;;;5036891;28;20417;-79
2022/02/04 08:08:38;;;;;;;8.02;3.13;;;8.20;99.90;;;;;;5038330;28;20027;-79
2022/02/04 08:11:17;;;;;;;7.32;4.13;;;8.10;99.90;;;;;;5037343;28;20021;-79
2022/02/04 08:16:53;;;;;;;7.00;3.63;;;8.20;99.90;;;;;;5041341;28;20041;-79
2022/02/04 08:19:39;;;;;;;6.72;3.25;;;8.20;99.90;;;;;;5037150;28;20091;-80
2022/02/04 08:27:52;;;;;;;7.22;4.05;;;8.20;99.90;;;;;;5043020;28;20025;-79
2022/02/04 08:33:34;;;;;;;12.35;3.83;;;8.20;99.90;;;;;;5047501;28;20122;-76
2022/02/04 08:56:38;;;;;;;3.97;2.03;;;8.40;99.90;;;;;;5052840;28;20029;-75
2022/02/04 08:59:11;;;;;;;5.95;3.05;;;8.40;99.90;;;;;;5044378;28;20039;-75
2022/02/04 09:01:43;;;;;;;4.55;2.08;;;8.50;99.90;;;;;;5044860;28;20485;-75
2022/02/04 09:04:16;;;;;;;3.63;1.67;;;8.50;99.90;;;;;;5049360;28;20022;-74
2022/02/04 09:06:49;;;;;;;3.60;1.75;;;8.60;99.90;;;;;;5036453;28;20049;-76
2022/02/04 09:09:28;;;;;;;3.28;1.35;;;8.60;99.90;;;;;;5036619;28;20049;-75
2022/02/04 09:12:04;;;;;;;2.60;1.23;;;8.70;99.90;;;;;;5036280;28;20049;-74
2022/02/04 09:17:58;;;;;;;7.57;2.30;;;8.80;99.90;;;;;;5037160;28;20075;-75
2022/02/04 09:20:39;;;;;;;2.05;1.23;;;8.80;99.90;;;;;;5049310;28;20103;-75
2022/02/04 09:23:05;;;;;;;1.63;0.70;;;8.80;99.90;;;;;;5056355;28;20424;-74
2022/02/04 09:25:30;;;;;;;2.92;1.92;;;8.80;99.90;;;;;;5056290;28;20025;-75
2022/02/04 09:27:56;;;;;;;2.85;1.55;;;8.90;99.90;;;;;;5044773;28;20030;-74
2022/02/04 09:30:23;;;;;;;3.60;2.35;;;8.80;99.90;;;;;;5036145;28;20030;-75
2022/02/04 09:32:49;;;;;;;4.32;2.10;;;8.90;99.90;;;;;;5044803;28;20033;-75
2022/02/04 09:35:19;;;;;;;3.78;1.90;;;8.80;99.90;;;;;;5055445;28;20063;-75
2022/02/04 09:37:46;;;;;;;3.90;1.98;;;8.80;99.90;;;;;;5042051;28;20057;-74
2022/02/04 09:40:13;;;;;;;4.22;1.88;;;8.80;99.90;;;;;;5049133;28;20033;-76
2022/02/04 09:42:39;;;;;;;4.70;1.85;;;8.80;99.90;;;;;;5051091;28;20065;-75
2022/02/04 09:45:07;;;;;;;6.38;2.10;;;8.80;99.90;;;;;;5018462;28;20029;-74
2022/02/04 09:47:35;;;;;;;3.10;1.95;;;8.80;99.90;;;;;;5018046;28;20483;-74
2022/02/04 09:50:09;;;;;;;3.08;1.77;;;8.70;99.90;;;;;;5041376;28;20017;-74
2022/02/04 10:07:00;;;;;;;2.63;1.52;;;8.90;99.90;;;;;;5056387;28;20037;-73
2022/02/04 10:17:15;;;;;;;1.85;1.30;;;9.00;99.90;;;;;;5053178;28;20037;-74
2022/02/04 10:22:23;;;;;;;2.35;1.30;;;9.10;99.90;;;;;;5055054;28;20394;-74
2022/02/04 10:25:03;;;;;;;2.88;1.02;;;9.10;99.90;;;;;;5054933;28;20013;-74
2022/02/04 10:27:31;;;;;;;2.50;1.20;;;9.10;99.90;;;;;;5054746;28;20025;-74
2022/02/04 10:30:01;;;;;;;2.97;1.88;;;9.10;99.90;;;;;;5035880;28;20092;-74
2022/02/04 10:32:40;;;;;;;1.83;0.70;;;9.20;99.90;;;;;;5054619;28;20060;-74
2022/02/04 10:35:15;;;;;;;1.13;0.80;;;9.30;99.90;;;;;;5054838;28;20032;-74
2022/02/04 10:38:09;;;;;;;1.27;0.70;;;9.30;99.90;;;;;;5054519;28;20025;-75
2022/02/04 10:44:01;;;;;;;1.50;1.35;;;9.30;99.90;;;;;;5054501;28;20029;-75
2022/02/04 10:46:12;;;;;;;;;;;9.30;99.90;;;;;;5044036;28;20079;-75
2022/02/04 10:51:58;;;;;;;0.95;0.50;;;9.40;99.90;;;;;;5055239;28;20375;-75
2022/02/04 10:57:37;;;;;;;0.85;0.85;;;9.40;99.90;;;;;;5055214;28;20061;-75
2022/02/04 11:00:14;;;;;;;1.33;0.95;;;9.40;99.90;;;;;;5036686;28;20569;-75
2022/02/04 11:08:12;;;;;;;1.55;0.82;;;9.40;99.90;;;;;;5054089;28;20032;-75
2022/02/04 11:11:02;;;;;;;3.78;1.30;;;9.30;99.90;;;;;;5036266;28;20025;-75
2022/02/04 11:33:06;;;;;;;1.00;0.63;;;9.30;99.90;;;;;;5053641;28;20117;-75
2022/02/04 11:35:29;;;;;;;2.60;0.40;;;9.30;99.90;;;;;;5053285;28;20040;-75
2022/02/04 11:43:48;;;;;;;1.50;0.68;;;9.20;99.90;;;;;;5043837;28;20032;-76
2022/02/04 11:50:02;;;;;;;0.93;0.50;;;9.10;99.90;;;;;;5040822;28;20109;-76
2022/02/04 11:52:09;;;;;;;1.05;0.60;;;9.20;99.90;;;;;;5038136;28;20044;-76
2022/02/04 11:54:46;;;;;;;3.92;0.88;;;9.10;99.90;;;;;;5033183;28;20025;-76
2022/02/04 11:57:13;;;;;;;0.85;0.50;;;9.10;99.90;;;;;;5015849;28;20029;-77
2022/02/04 11:59:43;;;;;;;0.38;0.28;;;9.00;99.90;;;;;;5033872;28;20017;-76
2022/02/04 12:02:26;;;;;;;1.00;0.30;;;9.10;99.90;;;;;;5015420;28;20076;-76
2022/02/04 12:05:07;;;;;;;2.95;0.40;;;9.00;99.90;;;;;;5033127;28;20026;-77
2022/02/04 12:07:53;;;;;;;3.75;0.45;;;9.00;99.90;;;;;;5015609;28;20025;-76
2022/02/04 12:10:23;;;;;;;1.05;0.40;;;9.00;99.90;;;;;;5033802;28;20028;-76
2022/02/04 12:12:55;;;;;;;0.80;0.35;;;9.00;99.90;;;;;;5033066;28;20037;-76
2022/02/04 12:15:34;;;;;;;1.63;0.35;;;9.00;99.90;;;;;;5033101;28;20022;-77
2022/02/04 12:18:06;;;;;;;3.45;0.47;;;9.00;99.90;;;;;;5015427;28;20030;-75
2022/02/04 12:20:58;;;;;;;0.93;0.17;;;9.00;99.90;;;;;;5015366;28;20057;-75
2022/02/04 12:23:27;;;;;;;3.38;0.75;;;9.00;99.90;;;;;;5015350;28;20029;-76
2022/02/04 12:25:59;;;;;;;0.63;0.25;;;9.00;99.90;;;;;;5033082;28;20045;-76
2022/02/04 12:28:58;;;;;;;1.20;0.22;;;9.00;99.90;;;;;;5033603;28;20456;-76
2022/02/04 12:31:36;;;;;;;4.60;1.30;;;9.00;99.90;;;;;;5032783;28;20051;-76
2022/02/04 12:34:01;;;;;;;1.08;0.35;;;9.00;99.90;;;;;;5033043;28;20387;-77
2022/02/04 12:36:29;;;;;;;5.47;0.70;;;8.90;99.90;;;;;;5033010;28;20026;-77
2022/02/04 12:39:04;;;;;;;1.17;0.30;;;8.90;99.90;;;;;;5015155;28;20410;-76
2022/02/04 12:41:38;;;;;;;2.95;0.43;;;8.90;99.90;;;;;;5033410;28;20033;-76
2022/02/04 12:44:14;;;;;;;6.18;1.70;;;8.90;99.90;;;;;;5015718;28;20120;-76
2022/02/04 12:46:45;;;;;;;2.00;0.55;;;8.90;99.90;;;;;;5032918;28;20032;-77
2022/02/04 12:49:16;;;;;;;4.07;0.17;;;8.90;99.90;;;;;;5033061;28;20030;-77
2022/02/04 12:54:44;;;;;;;1.20;0.38;;;8.70;99.90;;;;;;5033138;28;20036;-77
2022/02/04 13:10:42;;;;;;;3.05;0.40;;;8.30;99.90;;;;;;4995971;28;20017;-77
2022/02/04 13:13:11;;;;;;;0.60;0.10;;;8.30;99.90;;;;;;5036305;28;20037;-77
2022/02/04 13:15:38;;;;;;;2.78;0.40;;;8.10;99.90;;;;;;5018716;28;20027;-77
2022/02/04 13:18:13;;;;;;;4.95;0.80;;;8.10;99.90;;;;;;5036648;28;20022;-77
2022/02/04 13:20:44;;;;;;;0.90;0.40;;;8.10;99.90;;;;;;5036588;28;20053;-77
2022/02/04 13:23:39;;;;;;;2.00;0.40;;;8.10;99.90;;;;;;5036065;28;20025;-77
2022/02/04 13:26:05;;;;;;;2.00;0.50;;;8.10;99.90;;;;;;5016178;28;20180;-77
2022/02/04 13:28:44;;;;;;;2.42;0.38;;;8.00;99.90;;;;;;5036027;28;20028;-77
2022/02/04 13:31:13;;;;;;;1.23;0.20;;;8.00;99.90;;;;;;5036111;28;20044;-77
2022/02/04 13:33:38;;;;;;;3.03;0.50;;;8.00;99.90;;;;;;5018373;28;20022;-77
2022/02/04 13:36:41;;;;;;;2.58;0.50;;;7.90;99.90;;;;;;5035900;28;20486;-77
2022/02/04 13:39:29;;;;;;;3.38;0.52;;;8.00;99.90;;;;;;4995176;28;20041;-76
2022/02/04 13:42:16;;;;;;;1.27;0.30;;;7.90;99.90;;;;;;5035902;28;20025;-76
2022/02/04 13:57:56;;;;;;;2.53;0.00;;;6.70;99.90;;;;;;5036225;28;20040;-76
2022/02/04 14:00:41;;;;;;;1.45;0.00;;;6.50;99.90;;;;;;5036032;28;20024;-76
2022/02/04 14:06:13;;;;;;;0.45;0.00;;;6.00;99.90;;;;;;5589163;23;20056;-74
2022/02/04 14:11:26;;;;;;;0.52;0.00;;;5.60;99.90;;;;;;5056920;28;20061;-74
2022/02/04 14:13:53;;;;;;;3.20;0.00;;;5.40;99.90;;;;;;5018943;28;20529;-74
2022/02/04 14:16:21;;;;;;;1.17;0.00;;;5.30;99.90;;;;;;5036103;28;20017;-74
2022/02/04 14:18:47;;;;;;;0.00;0.00;;;5.30;99.90;;;;;;5035169;28;20115;-74
2022/02/04 14:21:16;;;;;;;0.00;0.00;;;5.20;99.90;;;;;;5018626;28;20021;-74
2022/02/04 14:23:44;;;;;;;0.00;0.00;;;5.10;99.90;;;;;;5035845;28;20033;-74
2022/02/04 14:26:19;;;;;;;0.10;0.00;;;4.90;99.90;;;;;;5018661;28;20021;-74
2022/02/04 14:28:56;;;;;;;1.08;0.00;;;4.80;99.90;;;;;;5036640;28;20018;-74
2022/02/04 15:02:45;;;;;;;1.00;0.00;;;4.60;99.90;;;;;;5035813;28;20087;-73
2022/02/04 15:05:18;;;;;;;0.85;0.10;;;4.70;99.90;;;;;;5035008;28;20037;-73
2022/02/04 15:07:45;;;;;;;1.33;0.00;;;4.70;99.90;;;;;;5016997;28;20032;-73
2022/02/04 15:10:17;;;;;;;0.30;0.00;;;4.70;99.90;;;;;;5016920;28;20056;-73
2022/02/04 15:12:44;;;;;;;0.57;0.00;;;4.60;99.90;;;;;;5016886;28;20111;-73
2022/02/04 15:15:10;;;;;;;3.97;0.00;;;4.70;99.90;;;;;;5018126;28;20014;-73
2022/02/04 15:17:37;;;;;;;0.20;0.00;;;4.70;99.90;;;;;;5018644;28;20032;-74
2022/02/04 15:20:05;;;;;;;0.88;0.00;;;4.70;99.90;;;;;;5017059;28;20029;-73
2022/02/04 15:22:30;;;;;;;0.63;0.00;;;4.70;99.90;;;;;;5035055;28;20120;-73
2022/02/04 15:25:01;;;;;;;1.15;0.00;;;4.80;99.90;;;;;;5034785;28;20045;-73
2022/02/04 15:27:27;;;;;;;4.38;0.47;;;4.80;99.90;;;;;;5035037;28;20017;-73
2022/02/04 15:29:53;;;;;;;0.73;0.35;;;4.80;99.90;;;;;;5034053;28;20018;-73
2022/02/04 15:32:19;;;;;;;2.50;0.00;;;4.80;99.90;;;;;;5016822;28;20026;-73
2022/02/04 15:34:45;;;;;;;1.63;0.00;;;4.80;99.90;;;;;;5016740;28;20017;-73
2022/02/04 15:37:10;;;;;;;1.27;0.00;;;4.70;99.90;;;;;;5034677;28;20024;-73
2022/02/04 15:39:36;;;;;;;3.85;0.00;;;4.70;99.90;;;;;;5012113;28;20021;-73
2022/02/04 15:42:09;;;;;;;1.10;0.00;;;4.70;99.90;;;;;;5024783;28;20021;-73
2022/02/04 15:44:39;;;;;;;0.40;0.00;;;4.70;99.90;;;;;;5033589;28;20025;-73
2022/02/04 15:50:30;;;;;;;0.45;0.00;;;4.60;99.90;;;;;;5032937;28;20025;-73
2022/02/04 15:52:50;;;;;;;2.65;0.00;;;4.60;99.90;;;;;;5028800;28;20033;-73
2022/02/04 16:00:59;;;;;;;1.58;0.00;;;4.50;99.90;;;;;;4953712;29;20066;-73
2022/02/04 16:06:13;;;;;;;1.15;0.00;;;4.50;99.90;;;;;;5027432;28;20045;-73
2022/02/04 16:08:39;;;;;;;0.10;0.00;;;4.50;99.90;;;;;;5013047;28;20018;-73
2022/02/04 16:11:17;;;;;;;1.48;0.00;;;4.50;99.90;;;;;;5013594;28;20072;-73
2022/02/04 16:13:48;;;;;;;2.25;0.00;;;4.40;99.90;;;;;;5014489;28;20117;-73
2022/02/04 16:18:55;;;;;;;0.40;0.00;;;4.40;99.90;;;;;;5015039;28;20117;-73
2022/02/04 16:21:28;;;;;;;8.57;0.00;;;4.40;99.90;;;;;;5012809;28;20056;-73
2022/02/04 16:24:15;;;;;;;0.10;0.10;;;4.40;99.90;;;;;;5018709;28;20017;-73
2022/02/04 16:26:58;;;;;;;2.63;0.00;;;4.30;99.90;;;;;;5015869;28;20460;-73
2022/02/04 16:29:23;;;;;;;1.63;0.00;;;4.40;99.90;;;;;;5016083;28;20118;-73
2022/02/04 16:31:50;;;;;;;1.35;0.00;;;4.30;99.90;;;;;;5033590;28;20493;-73
2022/02/04 16:34:16;;;;;;;0.98;0.32;;;4.30;99.90;;;;;;5033742;28;20109;-73
2022/02/04 16:36:45;;;;;;;1.65;0.00;;;4.40;99.90;;;;;;5016293;28;20136;-73
2022/02/04 16:39:12;;;;;;;3.97;0.08;;;4.30;99.90;;;;;;5016150;28;20064;-73
2022/02/04 16:42:12;;;;;;;3.85;0.00;;;4.30;99.90;;;;;;5016824;28;20034;-73
2022/02/04 16:44:31;;;;;;;0.40;0.00;;;4.30;99.90;;;;;;5034015;28;20045;-73
2022/02/04 16:47:00;;;;;;;2.53;0.30;;;4.30;99.90;;;;;;5019741;28;20026;-73
2022/02/04 16:49:26;;;;;;;0.93;0.00;;;4.40;99.90;;;;;;5019664;28;20017;-73
2022/02/04 16:51:51;;;;;;;5.72;0.30;;;4.40;99.90;;;;;;5019704;28;20474;-73
2022/02/04 16:54:18;;;;;;;2.15;0.00;;;4.40;99.90;;;;;;5037405;28;20037;-73
2022/02/04 16:56:44;;;;;;;2.50;0.00;;;4.30;99.90;;;;;;5037200;28;20104;-73
2022/02/04 16:59:10;;;;;;;4.78;0.00;;;4.30;99.90;;;;;;5015739;28;20124;-73
2022/02/04 17:01:36;;;;;;;5.05;0.00;;;4.20;99.90;;;;;;5017357;28;20057;-73
2022/02/04 17:04:03;;;;;;;3.60;0.10;;;4.20;99.90;;;;;;5016996;28;20037;-73
2022/02/04 17:06:34;;;;;;;2.75;0.00;;;4.20;99.90;;;;;;5033104;28;20112;-73
2022/02/04 17:09:20;;;;;;;4.38;0.55;;;4.10;99.90;;;;;;5037368;28;20018;-73
2022/02/04 17:11:48;;;;;;;4.43;0.00;;;4.10;99.90;;;;;;5037066;28;20073;-73
2022/02/04 17:14:15;;;;;;;3.72;0.00;;;4.10;99.90;;;;;;5036832;28;20053;-73
2022/02/04 17:16:42;;;;;;;5.78;0.20;;;4.10;99.90;;;;;;5036612;28;20036;-73
2022/02/04 17:19:18;;;;;;;2.33;0.43;;;4.00;99.90;;;;;;5036643;28;20033;-73
2022/02/04 17:21:44;;;;;;;4.72;0.10;;;3.90;99.90;;;;;;5018407;28;20116;-73
2022/02/04 17:24:13;;;;;;;2.17;0.00;;;3.90;99.90;;;;;;5019260;28;20451;-73
2022/02/04 17:26:40;;;;;;;8.27;0.00;;;4.00;99.90;;;;;;5018995;28;20032;-73
2022/02/04 17:29:07;;;;;;;1.70;0.00;;;4.00;99.90;;;;;;5036747;28;20017;-73
2022/02/04 17:31:33;;;;;;;2.30;0.10;;;4.10;99.90;;;;;;5036082;28;20072;-73
2022/02/04 17:33:59;;;;;;;7.07;0.60;;;4.20;99.90;;;;;;5036118;28;20025;-73
2022/02/04 17:36:24;;;;;;;2.92;0.32;;;4.20;99.90;;;;;;5036434;28;20104;-73
2022/02/04 17:38:53;;;;;;;5.57;0.85;;;4.20;99.90;;;;;;5036885;28;20539;-73
2022/02/04 17:41:19;;;;;;;3.63;0.50;;;4.20;99.90;;;;;;5036460;28;20017;-73
2022/02/04 17:43:48;;;;;;;5.75;0.10;;;4.20;99.90;;;;;;5035846;28;20048;-73
2022/02/04 17:46:13;;;;;;;;;;;4.10;99.90;;;;;;5036165;28;20032;-73
2022/02/04 17:51:46;;;;;;;6.13;0.57;;;4.20;99.90;;;;;;5002829;28;20044;-73
2022/02/04 17:54:15;;;;;;;5.25;0.28;;;4.20;99.90;;;;;;5036229;28;20025;-73
2022/02/04 17:57:04;;;;;;;7.10;0.40;;;4.30;99.90;;;;;;5018235;28;20108;-73
2022/02/04 18:02:09;;;;;;;5.97;0.75;;;4.40;99.90;;;;;;5035542;28;20038;-73
2022/02/04 18:07:22;;;;;;;4.65;0.60;;;4.40;99.90;;;;;;5035703;28;20095;-73
2022/02/04 18:09:52;;;;;;;11.07;0.30;;;4.40;99.90;;;;;;5035644;28;20532;-73
2022/02/04 18:12:24;;;;;;;6.18;0.40;;;7.20;99.90;;;;;;5017844;28;20029;-73
2022/02/04 18:14:53;;;;;;;5.95;0.52;;;4.40;99.90;;;;;;5035298;28;20113;-73
2022/02/04 18:17:19;;;;;;;;;;;4.50;99.90;;;;;;5035589;28;20041;-73
2022/02/04 18:19:45;;;;;;;6.72;0.20;;;4.50;99.90;;;;;;5035613;28;19905;-73
2022/02/04 18:22:11;;;;;;;5.82;0.10;;;4.60;99.90;;;;;;5035522;28;20032;-73
2022/02/04 18:24:38;;;;;;;8.30;0.20;;;4.60;99.90;;;;;;5017500;28;20021;-73
2022/02/04 18:27:07;;;;;;;7.93;0.30;;;4.60;99.90;;;;;;5034931;28;20471;-73
2022/02/04 18:29:39;;;;;;;8.80;0.28;;;4.60;99.90;;;;;;5035247;28;20100;-73
2022/02/04 18:32:05;;;;;;;16.88;0.70;;;4.70;99.90;;;;;;5035317;28;20018;-73
2022/02/04 18:34:31;;;;;;;7.13;0.35;;;4.70;99.90;;;;;;5035167;28;20025;-73
2022/02/04 18:36:59;;;;;;;2.28;0.32;;;4.70;99.90;;;;;;5035358;28;20394;-73
2022/02/04 18:44:44;;;;;;;6.05;0.55;;;4.90;99.90;;;;;;5035189;28;20033;-73
2022/02/04 18:47:36;;;;;;;9.57;0.40;;;4.90;99.90;;;;;;5034661;28;20075;-73
2022/02/04 18:50:20;;;;;;;6.45;0.47;;;5.00;99.90;;;;;;5034242;28;20414;-73
2022/02/04 18:55:45;;;;;;;6.90;0.85;;;5.10;99.90;;;;;;5035159;28;20041;-73
2022/02/04 18:58:14;;;;;;;6.32;0.63;;;5.10;99.90;;;;;;5035245;28;20029;-73
2022/02/04 19:00:40;;;;;;;4.32;0.55;;;5.10;99.90;;;;;;5017059;28;20040;-73
2022/02/04 19:03:12;;;;;;;5.22;0.40;;;5.10;99.90;;;;;;5034725;28;20029;-73
2022/02/04 19:05:44;;;;;;;7.07;0.50;;;5.10;99.90;;;;;;5033624;28;20503;-73
2022/02/04 19:08:26;;;;;;;5.25;0.73;;;5.10;99.90;;;;;;5034071;28;20026;-73
2022/02/04 19:10:52;;;;;;;2.58;0.43;;;5.10;99.90;;;;;;5034528;28;20041;-73
2022/02/04 19:13:24;;;;;;;8.35;1.13;;;5.00;99.90;;;;;;5016573;28;20448;-73
2022/02/04 19:21:14;;;;;;;6.30;0.45;;;5.20;99.90;;;;;;4986404;28;20091;-73
2022/02/04 19:23:48;;;;;;;7.60;0.93;;;5.20;99.90;;;;;;5014203;28;20418;-73
2022/02/04 19:26:17;;;;;;;8.70;0.70;;;5.30;99.90;;;;;;4998378;28;20018;-74
2022/02/04 19:28:43;;;;;;;4.60;1.75;;;5.30;99.90;;;;;;5033536;28;20025;-74
2022/02/04 19:31:09;;;;;;;6.05;0.80;;;5.40;99.90;;;;;;5034076;28;20028;-73
2022/02/04 19:33:36;;;;;;;7.50;0.80;;;5.50;99.90;;;;;;5033989;28;20386;-73
2022/02/04 19:36:02;;;;;;;9.27;0.35;;;5.50;99.90;;;;;;5034390;28;20072;-73
2022/02/04 19:38:28;;;;;;;6.85;0.32;;;5.50;99.90;;;;;;5015755;28;20030;-74